Time;durP1;ratioP1;P1;durP2;ratioP2;P2;SDS_P1;SDS_P2;PMS_P1;PMS_P2;Temp;Humidity;BMP_temperature;BMP_pressure;BME280_temperature;BME280_humidity;BME280_pressure;Samples;Min_cycle;Max_cycle;Signal;HPM_P1;HPM_P2
2023/09/10 00:03:32;;;;;;;;;;;25.20;69.90;;;;;;10407505;28;20039;-67
2023/09/10 00:08:34;;;;;;;;;;;25.20;69.90;;;;;;10406945;28;20279;-67
2023/09/10 00:13:36;;;;;;;;;;;25.20;70.00;;;;;;10407840;28;19934;-68
2023/09/10 00:18:38;;;;;;;;;;;25.20;70.20;;;;;;10397218;28;19969;-70
2023/09/10 00:23:41;;;;;;;;;;;25.20;70.00;;;;;;10408947;28;19933;-68
2023/09/10 00:28:46;;;;;;;;;;;25.20;70.00;;;;;;10411715;28;20122;-68
2023/09/10 00:33:48;;;;;;;;;;;25.10;70.10;;;;;;10415176;28;20032;-68
2023/09/10 00:38:50;;;;;;;;;;;25.10;70.00;;;;;;10407492;28;20417;-67
2023/09/10 00:43:53;;;;;;;;;;;25.10;70.00;;;;;;10412016;28;19956;-68
2023/09/10 00:48:55;;;;;;;;;;;25.10;70.10;;;;;;10411153;28;19976;-68
2023/09/10 00:53:57;;;;;;;;;;;25.10;70.10;;;;;;10412238;28;19940;-68
2023/09/10 00:58:59;;;;;;;;;;;25.10;70.10;;;;;;10411824;28;19967;-68
2023/09/10 01:04:00;;;;;;;;;;;25.10;70.10;;;;;;10404354;28;20049;-68
2023/09/10 01:09:04;;;;;;;;;;;25.10;70.20;;;;;;10410811;28;19940;-68
2023/09/10 01:14:11;;;;;;;;;;;25.00;70.20;;;;;;10420826;28;19955;-68
2023/09/10 01:19:19;;;;;;;;;;;25.00;70.10;;;;;;10401405;28;20312;-67
2023/09/10 01:24:26;;;;;;;;;;;25.00;70.10;;;;;;10415472;28;19937;-68
2023/09/10 01:29:27;;;;;;;;;;;25.00;70.10;;;;;;10409107;28;20289;-68
2023/09/10 01:34:33;;;;;;;;;;;25.00;70.10;;;;;;10410659;28;19941;-68
2023/09/10 01:39:38;;;;;;;;;;;25.00;70.20;;;;;;10402948;28;19933;-68
2023/09/10 01:44:41;;;;;;;;;;;25.00;70.10;;;;;;10411505;28;19933;-68
2023/09/10 01:49:42;;;;;;;;;;;25.00;70.10;;;;;;10409846;28;19933;-68
2023/09/10 01:54:44;;;;;;;;;;;25.00;70.10;;;;;;10409070;28;19934;-68
2023/09/10 01:59:46;;;;;;;;;;;25.00;70.10;;;;;;10414273;28;20435;-68
2023/09/10 02:04:48;;;;;;;;;;;25.00;70.10;;;;;;10407171;28;19934;-67
2023/09/10 02:09:49;;;;;;;;;;;25.00;70.10;;;;;;10409865;28;19933;-67
2023/09/10 02:14:51;;;;;;;;;;;25.00;70.10;;;;;;10411619;28;19937;-67
2023/09/10 02:19:53;;;;;;;;;;;25.00;70.10;;;;;;10409454;28;19933;-67
2023/09/10 02:24:55;;;;;;;;;;;25.00;70.10;;;;;;10410342;28;20040;-67
2023/09/10 02:29:57;;;;;;;;;;;25.00;70.00;;;;;;10424899;28;20405;-69
2023/09/10 02:34:59;;;;;;;;;;;25.00;70.00;;;;;;10408503;28;20385;-69
2023/09/10 02:40:01;;;;;;;;;;;25.00;70.00;;;;;;10406908;28;20061;-69
2023/09/10 02:45:02;;;;;;;;;;;24.90;70.00;;;;;;10407739;28;19943;-69
2023/09/10 02:50:04;;;;;;;;;;;25.00;70.00;;;;;;10423660;28;19940;-69
2023/09/10 02:55:06;;;;;;;;;;;25.00;70.00;;;;;;10406224;28;19940;-69
2023/09/10 03:00:08;;;;;;;;;;;24.90;70.00;;;;;;10401213;28;19933;-69
2023/09/10 03:05:11;;;;;;;;;;;24.90;70.00;;;;;;10408171;28;20023;-69
2023/09/10 03:10:13;;;;;;;;;;;24.90;69.90;;;;;;10405880;28;20032;-69
2023/09/10 03:15:15;;;;;;;;;;;24.90;70.00;;;;;;10422908;28;19933;-69
2023/09/10 03:20:17;;;;;;;;;;;24.90;69.90;;;;;;10407008;28;20875;-69
2023/09/10 03:25:18;;;;;;;;;;;24.90;69.90;;;;;;10408373;28;19938;-68
2023/09/10 03:30:20;;;;;;;;;;;24.90;70.00;;;;;;10408273;28;19933;-68
2023/09/10 03:35:22;;;;;;;;;;;24.90;70.00;;;;;;10406591;28;20304;-68
2023/09/10 03:40:24;;;;;;;;;;;24.90;69.90;;;;;;10406694;28;20320;-68
2023/09/10 03:45:26;;;;;;;;;;;24.90;69.90;;;;;;10406806;28;19940;-71
2023/09/10 03:50:27;;;;;;;;;;;24.80;69.80;;;;;;10407219;28;19941;-69
2023/09/10 03:55:29;;;;;;;;;;;24.80;69.90;;;;;;10406032;28;19933;-69
2023/09/10 04:00:32;;;;;;;;;;;24.80;70.00;;;;;;10407700;28;20012;-69
2023/09/10 04:05:33;;;;;;;;;;;24.80;70.00;;;;;;10426419;28;20169;-68
2023/09/10 04:10:35;;;;;;;;;;;24.80;69.90;;;;;;10414052;28;19933;-68
2023/09/10 04:15:37;;;;;;;;;;;24.80;69.90;;;;;;10413184;28;19944;-69
2023/09/10 04:20:38;;;;;;;;;;;24.80;69.90;;;;;;10414436;28;19965;-67
2023/09/10 04:25:41;;;;;;;;;;;24.80;69.90;;;;;;10404034;28;19933;-67
2023/09/10 04:30:42;;;;;;;;;;;24.80;69.90;;;;;;10420390;28;19985;-66
2023/09/10 04:35:48;;;;;;;;;;;24.80;69.90;;;;;;10413729;28;19940;-66
2023/09/10 04:40:50;;;;;;;;;;;24.80;69.90;;;;;;10412737;28;20389;-66
2023/09/10 04:51:13;;;;;;;;;;;24.80;69.80;;;;;;10536464;22;19934;-46
2023/09/10 04:56:15;;;;;;;;;;;24.80;69.80;;;;;;10408111;28;19934;-43
2023/09/10 05:01:17;;;;;;;;;;;24.80;69.70;;;;;;10417539;28;19933;-42
2023/09/10 05:06:21;;;;;;;;;;;24.80;69.70;;;;;;10406997;28;20408;-43
2023/09/10 05:11:24;;;;;;;;;;;24.80;69.70;;;;;;10407461;28;20041;-42
2023/09/10 05:16:25;;;;;;;;;;;24.80;69.70;;;;;;10402333;28;19933;-45
2023/09/10 05:21:27;;;;;;;;;;;24.70;69.60;;;;;;10392196;28;20365;-42
2023/09/10 05:26:29;;;;;;;;;;;24.80;69.70;;;;;;10380892;28;19945;-44
2023/09/10 05:31:32;;;;;;;;;;;24.80;69.90;;;;;;10403006;28;19940;-44
2023/09/10 05:36:34;;;;;;;;;;;24.80;69.80;;;;;;10432042;28;19933;-45
2023/09/10 05:41:36;;;;;;;;;;;24.70;69.80;;;;;;10408223;28;19941;-42
2023/09/10 05:46:38;;;;;;;;;;;24.70;69.80;;;;;;10400337;28;19941;-42
2023/09/10 05:51:39;;;;;;;;;;;24.70;69.90;;;;;;10411135;28;20306;-43
2023/09/10 05:56:41;;;;;;;;;;;24.80;69.90;;;;;;10409071;28;19941;-43
2023/09/10 06:01:43;;;;;;;;;;;24.70;69.90;;;;;;10420808;28;19956;-45
2023/09/10 06:06:45;;;;;;;;;;;24.80;69.90;;;;;;10411085;28;19941;-45
2023/09/10 06:11:47;;;;;;;;;;;24.70;70.00;;;;;;10398428;28;19941;-43
2023/09/10 06:16:48;;;;;;;;;;;24.70;70.00;;;;;;10395320;28;20285;-44
2023/09/10 06:21:50;;;;;;;;;;;24.70;70.00;;;;;;10403970;28;19973;-43
2023/09/10 06:26:52;;;;;;;;;;;24.70;70.10;;;;;;10392501;28;19933;-44
2023/09/10 06:31:57;;;;;;;;;;;24.70;70.10;;;;;;10389934;28;20020;-46
2023/09/10 06:36:59;;;;;;;;;;;24.70;69.70;;;;;;10404841;28;19934;-44
2023/09/10 06:42:00;;;;;;;;;;;24.60;68.40;;;;;;10396826;28;20388;-42
2023/09/10 06:47:02;;;;;;;;;;;24.50;68.90;;;;;;10398579;28;19934;-48
2023/09/10 06:52:05;;;;;;;;;;;24.40;69.40;;;;;;10398105;28;19941;-47
2023/09/10 06:57:06;;;;;;;;;;;24.40;69.70;;;;;;10413542;28;19933;-45
2023/09/10 07:02:08;;;;;;;;;;;24.40;70.20;;;;;;10404127;28;19933;-50
2023/09/10 07:07:10;;;;;;;;;;;24.30;70.60;;;;;;10406126;28;19933;-48
2023/09/10 07:12:11;;;;;;;;;;;24.30;71.10;;;;;;10399139;28;19940;-45
2023/09/10 07:17:13;;;;;;;;;;;24.30;70.90;;;;;;10408137;28;19959;-47
2023/09/10 07:22:15;;;;;;;;;;;24.40;70.70;;;;;;10401055;28;20414;-44
2023/09/10 07:27:17;;;;;;;;;;;24.50;70.70;;;;;;10392769;28;19946;-43
2023/09/10 07:32:19;;;;;;;;;;;24.50;70.50;;;;;;10398160;28;19940;-44
2023/09/10 07:37:20;;;;;;;;;;;24.50;70.40;;;;;;10413913;28;20145;-44
2023/09/10 07:42:22;;;;;;;;;;;24.60;70.30;;;;;;10413271;28;20403;-46
2023/09/10 07:47:24;;;;;;;;;;;24.60;70.20;;;;;;10390815;28;19934;-46
2023/09/10 07:52:26;;;;;;;;;;;24.50;70.30;;;;;;10401858;28;19933;-46
2023/09/10 07:57:28;;;;;;;;;;;24.50;70.40;;;;;;10416623;28;20494;-45
2023/09/10 08:02:29;;;;;;;;;;;24.50;70.40;;;;;;10417039;28;19933;-44
2023/09/10 08:07:32;;;;;;;;;;;24.50;70.30;;;;;;10402283;28;19941;-44
2023/09/10 08:12:36;;;;;;;;;;;24.50;70.30;;;;;;10401094;28;19933;-45
2023/09/10 08:17:37;;;;;;;;;;;24.50;70.30;;;;;;10401422;28;19933;-44
2023/09/10 08:22:39;;;;;;;;;;;24.50;70.20;;;;;;10411614;28;19933;-44
2023/09/10 08:27:40;;;;;;;;;;;24.50;70.20;;;;;;10402205;28;19941;-43
2023/09/10 08:32:45;;;;;;;;;;;24.50;70.30;;;;;;10412634;28;19933;-49
2023/09/10 08:37:47;;;;;;;;;;;24.50;70.20;;;;;;10409421;28;19940;-43
2023/09/10 08:43:04;;;;;;;;;;;24.50;70.20;;;;;;10410699;28;19934;-44
2023/09/10 08:48:06;;;;;;;;;;;24.50;70.20;;;;;;10412392;28;19942;-46
2023/09/10 08:53:11;;;;;;;;;;;24.50;70.20;;;;;;10407043;28;19934;-45
2023/09/10 08:58:15;;;;;;;;;;;24.50;70.30;;;;;;10417249;28;20165;-49
2023/09/10 09:03:17;;;;;;;;;;;24.50;70.30;;;;;;10415553;28;19934;-45
2023/09/10 09:08:22;;;;;;;;;;;24.50;70.30;;;;;;10400382;28;19988;-44
2023/09/10 09:13:24;;;;;;;;;;;24.50;70.30;;;;;;10396886;28;20048;-46
2023/09/10 09:18:26;;;;;;;;;;;24.50;70.30;;;;;;10399132;28;20286;-49
2023/09/10 09:23:29;;;;;;;;;;;24.50;70.20;;;;;;10413186;28;19937;-51
2023/09/10 09:28:32;;;;;;;;;;;24.60;70.30;;;;;;10411207;28;19996;-47
2023/09/10 09:33:35;;;;;;;;;;;24.60;70.20;;;;;;10410042;28;20016;-55
2023/09/10 09:38:45;;;;;;;;;;;24.70;70.10;;;;;;10420726;28;20307;-44
2023/09/10 09:43:47;;;;;;;;;;;24.80;70.00;;;;;;10409238;28;19933;-44
2023/09/10 09:48:49;;;;;;;;;;;24.80;69.80;;;;;;10386073;28;19940;-44
2023/09/10 09:53:51;;;;;;;;;;;25.00;69.60;;;;;;10397506;28;19934;-46
2023/09/10 09:58:58;;;;;;;;;;;25.00;69.30;;;;;;10398902;28;19940;-44
2023/09/10 10:04:00;;;;;;;;;;;25.20;70.20;;;;;;10396656;28;20880;-44
2023/09/10 10:09:02;;;;;;;;;;;25.20;68.90;;;;;;10410126;28;20092;-46
2023/09/10 10:14:04;;;;;;;;;;;25.30;68.80;;;;;;10405220;28;20028;-48
2023/09/10 10:19:07;;;;;;;;;;;25.30;68.70;;;;;;10404697;28;19941;-45
2023/09/10 10:24:08;;;;;;;;;;;25.40;68.60;;;;;;10392271;28;19981;-43
2023/09/10 10:29:11;;;;;;;;;;;25.40;68.60;;;;;;10401400;28;19934;-50
2023/09/10 10:34:19;;;;;;;;;;;25.50;68.50;;;;;;10409714;28;20289;-45
2023/09/10 10:39:27;;;;;;;;;;;25.50;68.50;;;;;;10405889;28;19940;-44
2023/09/10 10:44:32;;;;;;;;;;;25.50;68.50;;;;;;10388875;28;19933;-44
2023/09/10 10:49:35;;;;;;;;;;;25.50;68.50;;;;;;10396246;28;19960;-46
2023/09/10 10:54:38;;;;;;;;;;;25.50;68.50;;;;;;10396578;28;19933;-44
2023/09/10 10:59:41;;;;;;;;;;;25.40;68.40;;;;;;10409244;28;26055;-43
2023/09/10 11:05:00;;;;;;;;;;;25.50;68.60;;;;;;10402659;28;19933;-47
2023/09/10 11:10:17;;;;;;;;;;;25.50;68.60;;;;;;10403743;28;19933;-46
2023/09/10 11:15:19;;;;;;;;;;;25.40;68.60;;;;;;10406742;28;19933;-44
2023/09/10 11:20:44;;;;;;;;;;;25.40;68.70;;;;;;10402982;28;19934;-47
2023/09/10 11:25:47;;;;;;;;;;;25.40;68.70;;;;;;10406452;28;20459;-46
2023/09/10 11:30:49;;;;;;;;;;;25.40;68.80;;;;;;10406941;28;19939;-49
2023/09/10 11:35:51;;;;;;;;;;;25.40;68.90;;;;;;10395232;28;20029;-47
2023/09/10 11:40:53;;;;;;;;;;;25.40;69.60;;;;;;10416072;28;19934;-46
2023/09/10 11:45:56;;;;;;;;;;;25.40;69.10;;;;;;10380720;28;19984;-47
2023/09/10 11:50:58;;;;;;;;;;;25.40;69.20;;;;;;10396873;28;19940;-47
2023/09/10 11:56:02;;;;;;;;;;;25.40;69.30;;;;;;10408081;28;20088;-44
2023/09/10 12:01:04;;;;;;;;;;;25.40;69.40;;;;;;10411049;28;20426;-45
2023/09/10 12:06:06;;;;;;;;;;;25.30;69.40;;;;;;10405355;28;19938;-43
2023/09/10 12:11:09;;;;;;;;;;;25.30;69.40;;;;;;10404199;28;20416;-43
2023/09/10 12:16:12;;;;;;;;;;;25.30;69.50;;;;;;10393038;28;19945;-46
2023/09/10 12:21:17;;;;;;;;;;;25.40;69.70;;;;;;10399191;28;20041;-49
2023/09/10 12:26:21;;;;;;;;;;;25.40;69.80;;;;;;10402391;28;20503;-47
2023/09/10 12:31:23;;;;;;;;;;;25.40;69.90;;;;;;10412346;28;20403;-45
2023/09/10 12:36:25;;;;;;;;;;;25.40;69.90;;;;;;10407668;28;19933;-45
2023/09/10 12:41:27;;;;;;;;;;;25.40;70.00;;;;;;10415948;28;19933;-49
2023/09/10 12:46:29;;;;;;;;;;;25.40;70.00;;;;;;10408541;28;19933;-50
2023/09/10 12:51:31;;;;;;;;;;;25.40;70.00;;;;;;10404502;28;20051;-50
2023/09/10 12:56:37;;;;;;;;;;;25.40;70.10;;;;;;10404129;28;20388;-48
2023/09/10 13:01:39;;;;;;;;;;;25.40;70.10;;;;;;10403366;28;19933;-50
2023/09/10 13:06:41;;;;;;;;;;;25.40;70.10;;;;;;10391909;28;19934;-51
2023/09/10 13:11:43;;;;;;;;;;;25.40;70.20;;;;;;10390654;28;19934;-45
2023/09/10 13:16:45;;;;;;;;;;;25.40;70.10;;;;;;10388466;28;20418;-49
2023/09/10 13:21:47;;;;;;;;;;;25.40;71.20;;;;;;10403051;28;19937;-51
2023/09/10 13:26:49;;;;;;;;;;;25.40;71.30;;;;;;10404367;28;19933;-46
2023/09/10 13:31:54;;;;;;;;;;;25.50;71.80;;;;;;10399380;28;19985;-48
2023/09/10 13:36:56;;;;;;;;;;;25.50;71.80;;;;;;10406037;28;20599;-51
2023/09/10 13:41:57;;;;;;;;;;;25.50;71.70;;;;;;10411073;28;19933;-49
2023/09/10 13:46:59;;;;;;;;;;;25.50;71.80;;;;;;10414053;28;20345;-52
2023/09/10 13:52:01;;;;;;;;;;;25.50;71.80;;;;;;10396562;28;20403;-46
2023/09/10 13:57:03;;;;;;;;;;;25.50;71.90;;;;;;10410913;28;20599;-49
2023/09/10 14:02:05;;;;;;;;;;;25.50;72.00;;;;;;10395812;28;20065;-47
2023/09/10 14:07:08;;;;;;;;;;;25.50;72.20;;;;;;10398970;28;20017;-45
2023/09/10 14:12:10;;;;;;;;;;;25.50;72.10;;;;;;10394400;28;20182;-48
2023/09/10 14:17:12;;;;;;;;;;;25.50;72.20;;;;;;10381290;28;20392;-46
2023/09/10 14:22:14;;;;;;;;;;;25.50;72.20;;;;;;10422102;28;20670;-43
2023/09/10 14:27:16;;;;;;;;;;;25.50;72.20;;;;;;10392262;28;19934;-49
2023/09/10 14:32:18;;;;;;;;;;;25.50;72.20;;;;;;10381958;28;19940;-45
2023/09/10 14:37:20;;;;;;;;;;;25.50;72.20;;;;;;10399064;28;20399;-47
2023/09/10 14:42:21;;;;;;;;;;;25.50;72.40;;;;;;10412925;28;19972;-46
2023/09/10 14:47:24;;;;;;;;;;;25.50;72.40;;;;;;10400647;28;19937;-46
2023/09/10 14:52:26;;;;;;;;;;;25.50;72.60;;;;;;10388161;28;20481;-45
2023/09/10 14:57:27;;;;;;;;;;;25.50;72.70;;;;;;10398594;28;19934;-50
2023/09/10 15:02:29;;;;;;;;;;;25.60;72.80;;;;;;10396813;28;19949;-45
2023/09/10 15:07:31;;;;;;;;;;;25.50;72.80;;;;;;10402061;28;19965;-46
2023/09/10 15:12:32;;;;;;;;;;;25.50;72.80;;;;;;10377728;28;19933;-48
2023/09/10 15:17:34;;;;;;;;;;;25.50;72.90;;;;;;10403047;28;19933;-50
2023/09/10 15:22:36;;;;;;;;;;;25.50;72.90;;;;;;10400002;28;20718;-45
2023/09/10 15:27:38;;;;;;;;;;;25.50;72.90;;;;;;10404218;28;20731;-45
2023/09/10 15:32:40;;;;;;;;;;;25.50;72.90;;;;;;10404218;28;19933;-44
2023/09/10 15:37:43;;;;;;;;;;;25.50;73.10;;;;;;10395148;28;19933;-42
2023/09/10 15:42:45;;;;;;;;;;;25.50;73.00;;;;;;10408262;28;20308;-45
2023/09/10 15:47:46;;;;;;;;;;;25.60;73.10;;;;;;10395397;28;19941;-46
2023/09/10 15:52:48;;;;;;;;;;;25.60;73.40;;;;;;10403363;28;19933;-48
2023/09/10 15:57:50;;;;;;;;;;;25.60;73.80;;;;;;10395603;28;19941;-48
2023/09/10 16:02:51;;;;;;;;;;;25.70;74.90;;;;;;10431703;28;19933;-45
2023/09/10 16:07:54;;;;;;;;;;;25.80;75.50;;;;;;10410309;28;20072;-49
2023/09/10 16:12:56;;;;;;;;;;;25.90;76.50;;;;;;10394048;28;20648;-46
2023/09/10 16:17:58;;;;;;;;;;;26.40;75.70;;;;;;10401085;28;19938;-61
2023/09/10 16:22:59;;;;;;;;;;;26.60;75.10;;;;;;10401296;28;20898;-48
2023/09/10 16:28:03;;;;;;;;;;;26.90;73.60;;;;;;10415178;28;19934;-44
2023/09/10 16:33:05;;;;;;;;;;;27.00;74.90;;;;;;10405497;28;20300;-45
2023/09/10 16:38:07;;;;;;;;;;;27.10;72.90;;;;;;10394940;28;19933;-44
2023/09/10 16:43:08;;;;;;;;;;;27.10;72.70;;;;;;10398937;28;20004;-47
2023/09/10 16:48:10;;;;;;;;;;;27.00;72.60;;;;;;10408370;28;20084;-43
2023/09/10 16:53:12;;;;;;;;;;;26.90;72.60;;;;;;10402730;28;19989;-43
2023/09/10 16:58:15;;;;;;;;;;;26.80;72.80;;;;;;10392466;28;20781;-47
2023/09/10 17:03:16;;;;;;;;;;;26.80;73.20;;;;;;10396309;28;20437;-45
2023/09/10 17:08:18;;;;;;;;;;;26.70;73.50;;;;;;10398122;28;19940;-43
2023/09/10 17:13:20;;;;;;;;;;;26.70;73.40;;;;;;10414188;28;20301;-45
2023/09/10 17:18:21;;;;;;;;;;;26.70;73.60;;;;;;10411061;28;20707;-44
2023/09/10 17:23:24;;;;;;;;;;;26.60;73.50;;;;;;10414104;28;20622;-43
2023/09/10 17:28:26;;;;;;;;;;;26.60;73.60;;;;;;10397892;28;20051;-45
2023/09/10 17:33:28;;;;;;;;;;;26.50;73.70;;;;;;10397565;28;20316;-44
2023/09/10 17:38:29;;;;;;;;;;;26.50;73.80;;;;;;10410638;28;19934;-44
2023/09/10 17:43:31;;;;;;;;;;;26.50;73.90;;;;;;10399025;28;20249;-44
2023/09/10 17:48:33;;;;;;;;;;;26.40;74.10;;;;;;10408502;28;19940;-45
2023/09/10 17:53:35;;;;;;;;;;;26.40;74.20;;;;;;10389132;28;20024;-44
2023/09/10 17:58:37;;;;;;;;;;;26.40;74.40;;;;;;10397251;28;19934;-44
2023/09/10 18:03:40;;;;;;;;;;;26.30;74.50;;;;;;10416320;28;20414;-44
2023/09/10 18:08:42;;;;;;;;;;;26.30;74.70;;;;;;10388278;28;19933;-46
2023/09/10 18:13:46;;;;;;;;;;;26.30;74.80;;;;;;10390768;28;19934;-48
2023/09/10 18:18:48;;;;;;;;;;;26.30;75.00;;;;;;10392277;28;19940;-46
2023/09/10 18:23:49;;;;;;;;;;;26.20;74.90;;;;;;10397159;28;19982;-45
2023/09/10 18:28:51;;;;;;;;;;;26.20;75.10;;;;;;10377545;28;19940;-48
2023/09/10 18:33:53;;;;;;;;;;;26.20;75.20;;;;;;10397311;28;20383;-44
2023/09/10 18:38:56;;;;;;;;;;;26.20;75.20;;;;;;10396517;28;19934;-46
2023/09/10 18:43:57;;;;;;;;;;;26.20;75.30;;;;;;10399931;28;19933;-44
2023/09/10 18:48:59;;;;;;;;;;;26.20;75.20;;;;;;10401035;28;19933;-45
2023/09/10 18:54:00;;;;;;;;;;;26.20;75.10;;;;;;10403484;28;20868;-48
2023/09/10 18:59:02;;;;;;;;;;;26.20;75.00;;;;;;10407234;28;20008;-46
2023/09/10 19:04:04;;;;;;;;;;;26.10;75.00;;;;;;10409845;28;19941;-47
2023/09/10 19:09:07;;;;;;;;;;;26.10;75.00;;;;;;10392372;28;19940;-44
2023/09/10 19:14:09;;;;;;;;;;;26.10;75.00;;;;;;10396480;28;19933;-45
2023/09/10 19:19:12;;;;;;;;;;;26.10;75.10;;;;;;10395570;28;19934;-44
2023/09/10 19:24:14;;;;;;;;;;;26.20;75.10;;;;;;10384307;28;20005;-49
2023/09/10 19:29:16;;;;;;;;;;;26.20;75.20;;;;;;10397983;28;19943;-45
2023/09/10 19:34:18;;;;;;;;;;;26.20;75.20;;;;;;10386885;28;19933;-48
2023/09/10 19:39:29;;;;;;;;;;;26.20;75.20;;;;;;10406809;28;19964;-45
2023/09/10 19:44:32;;;;;;;;;;;26.20;75.20;;;;;;10391208;28;19934;-43
2023/09/10 19:49:34;;;;;;;;;;;26.20;75.30;;;;;;10388810;28;20059;-47
2023/09/10 19:54:36;;;;;;;;;;;26.20;75.30;;;;;;10400503;28;19934;-45
2023/09/10 19:59:37;;;;;;;;;;;26.20;75.20;;;;;;10407987;28;19933;-43
2023/09/10 20:04:41;;;;;;;;;;;26.20;75.30;;;;;;10405481;28;20067;-44
2023/09/10 20:09:45;;;;;;;;;;;26.20;75.20;;;;;;10408185;28;19933;-44
2023/09/10 20:14:47;;;;;;;;;;;26.20;75.40;;;;;;10408853;28;19933;-47
2023/09/10 20:19:49;;;;;;;;;;;26.20;75.30;;;;;;10398165;28;19985;-46
2023/09/10 20:24:51;;;;;;;;;;;26.20;75.20;;;;;;10400496;28;19973;-44
2023/09/10 20:29:52;;;;;;;;;;;26.20;75.20;;;;;;10406202;28;19933;-46
2023/09/10 20:34:54;;;;;;;;;;;26.20;75.10;;;;;;10397860;28;19941;-44
2023/09/10 20:39:57;;;;;;;;;;;26.10;75.10;;;;;;10415354;28;19933;-47
2023/09/10 20:44:58;;;;;;;;;;;26.10;75.00;;;;;;10394299;28;19933;-47
2023/09/10 20:50:00;;;;;;;;;;;26.10;75.00;;;;;;10398417;28;20460;-58
2023/09/10 20:55:02;;;;;;;;;;;26.10;74.90;;;;;;10406914;28;19945;-49
2023/09/10 21:00:05;;;;;;;;;;;26.10;74.80;;;;;;10414830;28;20523;-46
2023/09/10 21:05:06;;;;;;;;;;;26.10;74.70;;;;;;10405090;28;19944;-45
2023/09/10 21:10:09;;;;;;;;;;;26.10;74.70;;;;;;10396509;28;20289;-45
2023/09/10 21:15:11;;;;;;;;;;;26.10;74.60;;;;;;10374227;28;20391;-46
2023/09/10 21:20:13;;;;;;;;;;;26.10;74.60;;;;;;10395458;28;20284;-45
2023/09/10 21:25:15;;;;;;;;;;;26.10;74.50;;;;;;10407697;28;20767;-45
2023/09/10 21:30:17;;;;;;;;;;;26.10;74.50;;;;;;10407408;28;19934;-44
2023/09/10 21:35:18;;;;;;;;;;;26.00;74.40;;;;;;10408165;28;19934;-44
2023/09/10 21:40:20;;;;;;;;;;;26.00;74.40;;;;;;10395970;28;20416;-43
2023/09/10 21:45:21;;;;;;;;;;;26.00;74.40;;;;;;10395215;28;19933;-44
2023/09/10 21:50:24;;;;;;;;;;;26.00;74.40;;;;;;10390105;28;20500;-46
2023/09/10 21:55:25;;;;;;;;;;;25.90;74.40;;;;;;10375948;28;19940;-43
2023/09/10 22:00:27;;;;;;;;;;;25.90;74.40;;;;;;10394556;28;19934;-47
2023/09/10 22:05:29;;;;;;;;;;;25.90;74.40;;;;;;10397520;28;19944;-49
2023/09/10 22:10:31;;;;;;;;;;;25.90;74.50;;;;;;10401497;28;19988;-44
2023/09/10 22:15:32;;;;;;;;;;;25.80;74.40;;;;;;10389197;28;20636;-45
2023/09/10 22:20:34;;;;;;;;;;;25.90;74.50;;;;;;10402651;28;20059;-45
2023/09/10 22:25:36;;;;;;;;;;;25.80;74.40;;;;;;10390374;28;19983;-43
2023/09/10 22:30:37;;;;;;;;;;;25.80;74.50;;;;;;10388875;28;19940;-46
2023/09/10 22:35:39;;;;;;;;;;;25.80;74.50;;;;;;10399860;28;19933;-45
2023/09/10 22:40:41;;;;;;;;;;;25.80;74.50;;;;;;10395425;28;19984;-48
2023/09/10 22:45:44;;;;;;;;;;;25.70;74.40;;;;;;10405939;28;19933;-44
2023/09/10 22:50:46;;;;;;;;;;;25.70;74.40;;;;;;10394874;28;20637;-45
2023/09/10 22:55:49;;;;;;;;;;;25.70;74.30;;;;;;10405862;28;20765;-43
2023/09/10 23:00:51;;;;;;;;;;;25.70;74.30;;;;;;10405643;28;19933;-46
2023/09/10 23:05:53;;;;;;;;;;;25.70;74.40;;;;;;10393379;28;19964;-46
2023/09/10 23:10:55;;;;;;;;;;;25.70;74.30;;;;;;10405480;28;19933;-49
2023/09/10 23:15:58;;;;;;;;;;;25.70;74.30;;;;;;10394945;28;20032;-47
2023/09/10 23:20:59;;;;;;;;;;;25.70;74.30;;;;;;10398874;28;19937;-45
2023/09/10 23:26:01;;;;;;;;;;;25.70;74.30;;;;;;10393802;28;19934;-45
2023/09/10 23:31:04;;;;;;;;;;;25.70;74.20;;;;;;10395058;28;20284;-43
2023/09/10 23:36:06;;;;;;;;;;;25.70;74.20;;;;;;10395763;28;19934;-43
2023/09/10 23:41:08;;;;;;;;;;;25.70;74.20;;;;;;10391269;28;19934;-47
2023/09/10 23:46:09;;;;;;;;;;;25.70;74.10;;;;;;10390031;28;20366;-46
2023/09/10 23:51:11;;;;;;;;;;;25.70;74.20;;;;;;10397310;28;19933;-45
2023/09/10 23:56:14;;;;;;;;;;;25.70;74.10;;;;;;10409977;28;20393;-46
